sensor_id;sensor_type;location;lat;lon;timestamp;pressure;altitude;pressure_sealevel;temperature;humidity
36692;BME280;22678;52.052;4.242;2023-06-22T00:01:46;101995.88;;;21.15;65.41
36692;BME280;22678;52.052;4.242;2023-06-22T00:04:11;101991.59;;;21.09;65.68
36692;BME280;22678;52.052;4.242;2023-06-22T00:06:36;101988.00;;;21.10;65.74
36692;BME280;22678;52.052;4.242;2023-06-22T00:09:01;102002.28;;;21.09;65.99
36692;BME280;22678;52.052;4.242;2023-06-22T00:11:28;101985.84;;;20.95;65.80
36692;BME280;22678;52.052;4.242;2023-06-22T00:13:53;101995.66;;;20.94;65.92
36692;BME280;22678;52.052;4.242;2023-06-22T00:16:18;101993.25;;;20.87;66.30
36692;BME280;22678;52.052;4.242;2023-06-22T00:18:44;101998.50;;;20.90;66.30
36692;BME280;22678;52.052;4.242;2023-06-22T00:21:12;101996.84;;;20.86;66.42
36692;BME280;22678;52.052;4.242;2023-06-22T00:23:37;101990.06;;;20.75;66.70
36692;BME280;22678;52.052;4.242;2023-06-22T00:26:03;102007.66;;;20.82;67.05
36692;BME280;22678;52.052;4.242;2023-06-22T00:28:28;101993.56;;;20.77;66.86
36692;BME280;22678;52.052;4.242;2023-06-22T00:30:54;101990.22;;;20.71;67.04
36692;BME280;22678;52.052;4.242;2023-06-22T00:33:19;101986.75;;;20.65;67.25
36692;BME280;22678;52.052;4.242;2023-06-22T00:35:44;101979.78;;;20.61;67.32
36692;BME280;22678;52.052;4.242;2023-06-22T00:38:10;101992.97;;;20.68;67.53
36692;BME280;22678;52.052;4.242;2023-06-22T00:40:36;101997.50;;;20.64;67.14
36692;BME280;22678;52.052;4.242;2023-06-22T00:43:02;101994.13;;;20.59;67.83
36692;BME280;22678;52.052;4.242;2023-06-22T00:45:27;101988.06;;;20.52;67.96
36692;BME280;22678;52.052;4.242;2023-06-22T00:47:57;101985.66;;;20.44;67.59
36692;BME280;22678;52.052;4.242;2023-06-22T00:50:25;101987.53;;;20.42;67.91
36692;BME280;22678;52.052;4.242;2023-06-22T00:52:53;101993.69;;;20.44;68.08
36692;BME280;22678;52.052;4.242;2023-06-22T00:55:21;101989.25;;;20.43;68.09
36692;BME280;22678;52.052;4.242;2023-06-22T00:57:47;101977.03;;;20.36;68.40
36692;BME280;22678;52.052;4.242;2023-06-22T01:00:13;101973.50;;;20.34;68.73
36692;BME280;22678;52.052;4.242;2023-06-22T01:02:40;101977.03;;;20.36;68.76
36692;BME280;22678;52.052;4.242;2023-06-22T01:05:06;101956.03;;;20.24;68.89
36692;BME280;22678;52.052;4.242;2023-06-22T01:07:38;101950.88;;;20.18;68.77
36692;BME280;22678;52.052;4.242;2023-06-22T01:13:00;101959.81;;;20.17;69.10
36692;BME280;22678;52.052;4.242;2023-06-22T01:15:31;101968.75;;;20.16;69.35
36692;BME280;22678;52.052;4.242;2023-06-22T01:17:59;101968.81;;;20.12;69.56
36692;BME280;22678;52.052;4.242;2023-06-22T01:20:25;101970.69;;;20.10;69.38
36692;BME280;22678;52.052;4.242;2023-06-22T01:26:08;101982.38;;;20.06;69.75
36692;BME280;22678;52.052;4.242;2023-06-22T01:28:41;101979.78;;;20.03;69.82
36692;BME280;22678;52.052;4.242;2023-06-22T01:31:09;101967.53;;;19.96;69.96
36692;BME280;22678;52.052;4.242;2023-06-22T01:33:37;101964.97;;;19.93;69.89
36692;BME280;22678;52.052;4.242;2023-06-22T01:36:04;101972.09;;;19.92;69.93
36692;BME280;22678;52.052;4.242;2023-06-22T01:38:30;101967.81;;;19.87;70.17
36692;BME280;22678;52.052;4.242;2023-06-22T01:41:00;101973.16;;;19.87;70.34
36692;BME280;22678;52.052;4.242;2023-06-22T01:43:26;101974.91;;;19.88;70.24
36692;BME280;22678;52.052;4.242;2023-06-22T01:45:54;101966.19;;;19.81;70.41
36692;BME280;22678;52.052;4.242;2023-06-22T01:48:20;101958.31;;;19.76;70.66
36692;BME280;22678;52.052;4.242;2023-06-22T01:50:46;101960.09;;;19.76;70.73
36692;BME280;22678;52.052;4.242;2023-06-22T01:53:12;101964.59;;;19.74;70.72
36692;BME280;22678;52.052;4.242;2023-06-22T01:55:37;101952.38;;;19.65;70.74
36692;BME280;22678;52.052;4.242;2023-06-22T01:58:03;101963.91;;;19.67;71.10
36692;BME280;22678;52.052;4.242;2023-06-22T02:00:31;101959.56;;;19.63;71.24
36692;BME280;22678;52.052;4.242;2023-06-22T02:03:19;101964.91;;;19.63;71.53
36692;BME280;22678;52.052;4.242;2023-06-22T02:05:50;101957.03;;;19.58;71.53
36692;BME280;22678;52.052;4.242;2023-06-22T02:08:22;101964.28;;;19.53;71.57
36692;BME280;22678;52.052;4.242;2023-06-22T02:10:52;101965.19;;;19.54;71.55
36692;BME280;22678;52.052;4.242;2023-06-22T02:13:20;101959.13;;;19.47;71.61
36692;BME280;22678;52.052;4.242;2023-06-22T02:15:46;101960.94;;;19.47;71.82
36692;BME280;22678;52.052;4.242;2023-06-22T02:18:12;101954.69;;;19.46;71.88
36692;BME280;22678;52.052;4.242;2023-06-22T02:20:38;101955.75;;;19.40;71.94
36692;BME280;22678;52.052;4.242;2023-06-22T02:23:05;101959.34;;;19.39;72.15
36692;BME280;22678;52.052;4.242;2023-06-22T02:25:31;101946.25;;;19.30;71.98
36692;BME280;22678;52.052;4.242;2023-06-22T02:27:57;101953.38;;;19.30;72.27
36692;BME280;22678;52.052;4.242;2023-06-22T02:30:22;101949.94;;;19.26;72.46
36692;BME280;22678;52.052;4.242;2023-06-22T02:32:47;101948.25;;;19.22;72.29
36692;BME280;22678;52.052;4.242;2023-06-22T02:35:13;101958.91;;;19.22;72.52
36692;BME280;22678;52.052;4.242;2023-06-22T02:37:39;101948.34;;;19.19;72.59
36692;BME280;22678;52.052;4.242;2023-06-22T02:40:07;101951.91;;;19.18;72.71
36692;BME280;22678;52.052;4.242;2023-06-22T02:42:34;101941.34;;;19.15;72.90
36692;BME280;22678;52.052;4.242;2023-06-22T02:45:00;101937.03;;;19.09;72.85
36692;BME280;22678;52.052;4.242;2023-06-22T02:47:25;101946.81;;;19.08;72.92
36692;BME280;22678;52.052;4.242;2023-06-22T02:49:51;101936.41;;;18.99;73.08
36692;BME280;22678;52.052;4.242;2023-06-22T02:52:16;101954.00;;;19.05;73.19
36692;BME280;22678;52.052;4.242;2023-06-22T02:54:41;101946.19;;;18.99;73.32
36692;BME280;22678;52.052;4.242;2023-06-22T02:57:07;101955.03;;;19.01;73.33
36692;BME280;22678;52.052;4.242;2023-06-22T02:59:41;101951.56;;;18.97;73.44
36692;BME280;22678;52.052;4.242;2023-06-22T03:02:08;101948.09;;;18.94;73.54
36692;BME280;22678;52.052;4.242;2023-06-22T03:04:34;101950.81;;;18.92;73.57
36692;BME280;22678;52.052;4.242;2023-06-22T03:06:59;101950.94;;;18.86;73.63
36692;BME280;22678;52.052;4.242;2023-06-22T03:09:27;101969.56;;;18.89;73.87
36692;BME280;22678;52.052;4.242;2023-06-22T03:11:53;101970.59;;;18.82;73.83
36692;BME280;22678;52.052;4.242;2023-06-22T03:14:18;101955.47;;;18.82;73.75
36692;BME280;22678;52.052;4.242;2023-06-22T03:16:44;101946.72;;;18.77;74.01
36692;BME280;22678;52.052;4.242;2023-06-22T03:19:09;101944.00;;;18.79;73.98
36692;BME280;22678;52.052;4.242;2023-06-22T03:21:37;101920.25;;;18.69;74.12
36692;BME280;22678;52.052;4.242;2023-06-22T03:24:04;101918.47;;;18.70;74.10
36692;BME280;22678;52.052;4.242;2023-06-22T03:26:29;101912.31;;;18.66;73.86
36692;BME280;22678;52.052;4.242;2023-06-22T03:28:55;101908.88;;;18.63;74.17
36692;BME280;22678;52.052;4.242;2023-06-22T03:31:20;101890.44;;;18.53;74.28
36692;BME280;22678;52.052;4.242;2023-06-22T03:33:47;101917.81;;;18.60;74.50
36692;BME280;22678;52.052;4.242;2023-06-22T03:36:13;101898.53;;;18.49;74.72
36692;BME280;22678;52.052;4.242;2023-06-22T03:38:39;101914.38;;;18.56;74.77
36692;BME280;22678;52.052;4.242;2023-06-22T03:41:04;101912.81;;;18.48;74.56
36692;BME280;22678;52.052;4.242;2023-06-22T03:43:29;101922.50;;;18.49;75.02
36692;BME280;22678;52.052;4.242;2023-06-22T03:45:55;101923.38;;;18.51;75.07
36692;BME280;22678;52.052;4.242;2023-06-22T03:48:20;101927.81;;;18.50;75.36
36692;BME280;22678;52.052;4.242;2023-06-22T03:50:45;101914.69;;;18.43;75.29
36692;BME280;22678;52.052;4.242;2023-06-22T03:53:11;101930.50;;;18.49;75.43
36692;BME280;22678;52.052;4.242;2023-06-22T03:55:36;101912.91;;;18.42;75.48
36692;BME280;22678;52.052;4.242;2023-06-22T03:58:02;101933.22;;;18.47;75.61
36692;BME280;22678;52.052;4.242;2023-06-22T04:00:33;101925.34;;;18.43;75.60
36692;BME280;22678;52.052;4.242;2023-06-22T04:02:59;101919.97;;;18.44;75.68
36692;BME280;22678;52.052;4.242;2023-06-22T04:05:24;101926.19;;;18.43;75.78
36692;BME280;22678;52.052;4.242;2023-06-22T04:07:50;101918.25;;;18.42;75.94
36692;BME280;22678;52.052;4.242;2023-06-22T04:10:15;101911.19;;;18.41;75.80
36692;BME280;22678;52.052;4.242;2023-06-22T04:12:40;101912.91;;;18.42;76.51
36692;BME280;22678;52.052;4.242;2023-06-22T04:15:06;101912.16;;;18.36;76.15
36692;BME280;22678;52.052;4.242;2023-06-22T04:17:31;101909.59;;;18.33;76.15
36692;BME280;22678;52.052;4.242;2023-06-22T04:19:57;101922.75;;;18.39;76.42
36692;BME280;22678;52.052;4.242;2023-06-22T04:22:22;101916.59;;;18.37;76.46
36692;BME280;22678;52.052;4.242;2023-06-22T04:24:47;101923.63;;;18.40;76.94
36692;BME280;22678;52.052;4.242;2023-06-22T04:27:13;101909.59;;;18.33;76.54
36692;BME280;22678;52.052;4.242;2023-06-22T04:29:38;101921.84;;;18.41;76.61
36692;BME280;22678;52.052;4.242;2023-06-22T04:32:08;101918.25;;;18.42;76.77
36692;BME280;22678;52.052;4.242;2023-06-22T04:34:34;101919.88;;;18.47;76.94
36692;BME280;22678;52.052;4.242;2023-06-22T04:36:59;101922.44;;;18.52;77.03
36692;BME280;22678;52.052;4.242;2023-06-22T04:39:24;101921.63;;;18.50;77.22
36692;BME280;22678;52.052;4.242;2023-06-22T04:41:52;101911.78;;;18.52;77.46
36692;BME280;22678;52.052;4.242;2023-06-22T04:44:18;101925.72;;;18.63;77.67
36692;BME280;22678;52.052;4.242;2023-06-22T04:46:51;101912.41;;;18.63;77.78
36692;BME280;22678;52.052;4.242;2023-06-22T04:49:20;101914.91;;;18.69;77.76
36692;BME280;22678;52.052;4.242;2023-06-22T04:51:45;101920.06;;;18.77;78.03
36692;BME280;22678;52.052;4.242;2023-06-22T04:54:11;101927.91;;;18.83;78.11
36692;BME280;22678;52.052;4.242;2023-06-22T04:56:36;101914.53;;;18.86;78.43
36692;BME280;22678;52.052;4.242;2023-06-22T04:59:02;101909.81;;;18.96;78.56
36692;BME280;22678;52.052;4.242;2023-06-22T05:01:29;101907.09;;;18.99;78.66
36692;BME280;22678;52.052;4.242;2023-06-22T05:03:56;101901.81;;;18.98;79.02
36692;BME280;22678;52.052;4.242;2023-06-22T05:06:22;101921.84;;;19.13;79.02
36692;BME280;22678;52.052;4.242;2023-06-22T05:08:53;101935.00;;;19.19;79.33
36692;BME280;22678;52.052;4.242;2023-06-22T05:11:23;101911.88;;;19.19;79.29
36692;BME280;22678;52.052;4.242;2023-06-22T05:13:48;101923.91;;;19.34;79.48
36692;BME280;22678;52.052;4.242;2023-06-22T05:16:14;101907.94;;;19.33;79.55
36692;BME280;22678;52.052;4.242;2023-06-22T05:18:39;101913.88;;;19.44;79.66
36692;BME280;22678;52.052;4.242;2023-06-22T05:21:05;101930.69;;;19.46;79.40
36692;BME280;22678;52.052;4.242;2023-06-22T05:23:32;101932.34;;;19.50;79.97
36692;BME280;22678;52.052;4.242;2023-06-22T05:25:57;101927.81;;;19.54;79.81
36692;BME280;22678;52.052;4.242;2023-06-22T05:28:23;101929.47;;;19.58;79.89
36692;BME280;22678;52.052;4.242;2023-06-22T05:30:48;101923.97;;;19.64;80.04
36692;BME280;22678;52.052;4.242;2023-06-22T05:33:13;101920.97;;;19.75;80.05
36692;BME280;22678;52.052;4.242;2023-06-22T05:35:39;101920.53;;;19.90;79.87
36692;BME280;22678;52.052;4.242;2023-06-22T05:38:04;101912.31;;;19.98;79.52
36692;BME280;22678;52.052;4.242;2023-06-22T05:40:29;101909.69;;;19.97;79.26
36692;BME280;22678;52.052;4.242;2023-06-22T05:42:55;101909.00;;;19.90;78.90
36692;BME280;22678;52.052;4.242;2023-06-22T05:45:20;101907.25;;;19.89;78.84
36692;BME280;22678;52.052;4.242;2023-06-22T05:47:45;101916.88;;;19.94;78.48
36692;BME280;22678;52.052;4.242;2023-06-22T05:50:11;101914.94;;;20.00;78.32
36692;BME280;22678;52.052;4.242;2023-06-22T05:52:36;101901.44;;;20.04;78.54
36692;BME280;22678;52.052;4.242;2023-06-22T05:55:02;101916.81;;;20.26;78.27
36692;BME280;22678;52.052;4.242;2023-06-22T05:57:27;101919.59;;;20.50;78.23
36692;BME280;22678;52.052;4.242;2023-06-22T05:59:53;101906.38;;;20.73;77.47
36692;BME280;22678;52.052;4.242;2023-06-22T06:02:19;101906.06;;;20.82;76.76
36692;BME280;22678;52.052;4.242;2023-06-22T06:04:44;101882.31;;;20.73;76.55
36692;BME280;22678;52.052;4.242;2023-06-22T06:07:10;101919.94;;;20.94;76.10
36692;BME280;22678;52.052;4.242;2023-06-22T06:09:35;101921.38;;;21.04;76.13
36692;BME280;22678;52.052;4.242;2023-06-22T06:12:00;101893.84;;;21.26;75.89
36692;BME280;22678;52.052;4.242;2023-06-22T06:14:28;101900.63;;;21.60;74.97
36692;BME280;22678;52.052;4.242;2023-06-22T06:16:53;101911.19;;;21.88;73.52
36692;BME280;22678;52.052;4.242;2023-06-22T06:19:18;101909.16;;;22.17;72.67
36692;BME280;22678;52.052;4.242;2023-06-22T06:21:44;101903.69;;;22.42;71.26
36692;BME280;22678;52.052;4.242;2023-06-22T06:24:09;101908.03;;;22.67;70.29
36692;BME280;22678;52.052;4.242;2023-06-22T06:26:34;101919.97;;;22.80;69.39
36692;BME280;22678;52.052;4.242;2023-06-22T06:29:01;101909.31;;;22.79;68.64
36692;BME280;22678;52.052;4.242;2023-06-22T06:31:27;101916.72;;;22.94;68.08
36692;BME280;22678;52.052;4.242;2023-06-22T06:33:53;101915.94;;;23.13;67.65
36692;BME280;22678;52.052;4.242;2023-06-22T06:36:19;101913.81;;;23.21;66.68
36692;BME280;22678;52.052;4.242;2023-06-22T06:38:44;101903.00;;;23.22;64.68
36692;BME280;22678;52.052;4.242;2023-06-22T06:41:12;101907.44;;;23.23;64.52
36692;BME280;22678;52.052;4.242;2023-06-22T06:43:38;101890.78;;;23.15;63.95
36692;BME280;22678;52.052;4.242;2023-06-22T06:46:03;101901.91;;;23.26;63.94
36692;BME280;22678;52.052;4.242;2023-06-22T06:48:28;101910.34;;;23.38;63.49
36692;BME280;22678;52.052;4.242;2023-06-22T06:50:54;101908.78;;;23.53;63.01
36692;BME280;22678;52.052;4.242;2023-06-22T06:53:19;101902.06;;;23.63;62.59
36692;BME280;22678;52.052;4.242;2023-06-22T06:55:44;101907.94;;;23.71;61.99
36692;BME280;22678;52.052;4.242;2023-06-22T06:58:10;101904.09;;;23.77;61.70
36692;BME280;22678;52.052;4.242;2023-06-22T07:00:38;101903.72;;;23.85;61.03
36692;BME280;22678;52.052;4.242;2023-06-22T07:03:04;101897.38;;;23.87;60.09
36692;BME280;22678;52.052;4.242;2023-06-22T07:05:30;101888.22;;;23.91;59.25
36692;BME280;22678;52.052;4.242;2023-06-22T07:07:55;101902.13;;;24.00;59.73
36692;BME280;22678;52.052;4.242;2023-06-22T07:10:20;101900.13;;;24.05;58.80
36692;BME280;22678;52.052;4.242;2023-06-22T07:12:46;101892.84;;;24.07;58.75
36692;BME280;22678;52.052;4.242;2023-06-22T07:15:12;101890.50;;;24.18;58.57
36692;BME280;22678;52.052;4.242;2023-06-22T07:17:38;101879.59;;;24.21;57.91
36692;BME280;22678;52.052;4.242;2023-06-22T07:20:07;101882.81;;;24.29;57.67
36692;BME280;22678;52.052;4.242;2023-06-22T07:22:35;101873.06;;;24.27;57.37
36692;BME280;22678;52.052;4.242;2023-06-22T07:25:01;101883.28;;;24.38;57.29
36692;BME280;22678;52.052;4.242;2023-06-22T07:27:29;101882.97;;;24.44;57.17
36692;BME280;22678;52.052;4.242;2023-06-22T07:30:03;101875.38;;;24.52;56.83
36692;BME280;22678;52.052;4.242;2023-06-22T07:32:28;101878.78;;;24.56;56.26
36692;BME280;22678;52.052;4.242;2023-06-22T07:34:54;101881.13;;;24.63;55.60
36692;BME280;22678;52.052;4.242;2023-06-22T07:37:19;101871.81;;;24.71;55.51
36692;BME280;22678;52.052;4.242;2023-06-22T07:39:44;101864.19;;;24.79;55.24
36692;BME280;22678;52.052;4.242;2023-06-22T07:42:10;101848.22;;;24.76;54.45
36692;BME280;22678;52.052;4.242;2023-06-22T07:44:35;101863.31;;;24.78;54.21
36692;BME280;22678;52.052;4.242;2023-06-22T07:47:00;101866.09;;;24.77;54.67
36692;BME280;22678;52.052;4.242;2023-06-22T07:49:27;101863.31;;;24.78;54.13
36692;BME280;22678;52.052;4.242;2023-06-22T07:51:53;101853.09;;;24.85;53.54
36692;BME280;22678;52.052;4.242;2023-06-22T07:54:18;101851.22;;;24.87;53.66
36692;BME280;22678;52.052;4.242;2023-06-22T07:56:43;101850.03;;;24.93;53.23
36692;BME280;22678;52.052;4.242;2023-06-22T07:59:09;101852.13;;;25.04;53.00
36692;BME280;22678;52.052;4.242;2023-06-22T08:01:34;101824.19;;;25.06;52.74
36692;BME280;22678;52.052;4.242;2023-06-22T08:03:59;101832.63;;;25.16;52.51
36692;BME280;22678;52.052;4.242;2023-06-22T08:06:25;101848.13;;;25.28;52.40
36692;BME280;22678;52.052;4.242;2023-06-22T08:08:50;101838.00;;;25.33;52.29
36692;BME280;22678;52.052;4.242;2023-06-22T08:11:20;101831.41;;;25.39;52.30
36692;BME280;22678;52.052;4.242;2023-06-22T08:13:48;101836.03;;;25.53;53.37
36692;BME280;22678;52.052;4.242;2023-06-22T08:16:13;101827.88;;;25.55;54.14
36692;BME280;22678;52.052;4.242;2023-06-22T08:18:39;101827.78;;;25.56;54.98
36692;BME280;22678;52.052;4.242;2023-06-22T08:21:04;101829.97;;;25.65;55.55
36692;BME280;22678;52.052;4.242;2023-06-22T08:23:29;101838.03;;;25.81;56.05
36692;BME280;22678;52.052;4.242;2023-06-22T08:25:54;101829.97;;;25.97;55.86
36692;BME280;22678;52.052;4.242;2023-06-22T08:28:20;101834.28;;;26.16;55.42
36692;BME280;22678;52.052;4.242;2023-06-22T08:30:46;101830.56;;;26.18;55.33
36692;BME280;22678;52.052;4.242;2023-06-22T08:33:11;101833.59;;;26.28;54.06
36692;BME280;22678;52.052;4.242;2023-06-22T08:35:37;101828.59;;;26.36;53.67
36692;BME280;22678;52.052;4.242;2023-06-22T08:38:03;101835.59;;;26.55;53.35
36692;BME280;22678;52.052;4.242;2023-06-22T08:40:29;101835.97;;;26.63;51.34
36692;BME280;22678;52.052;4.242;2023-06-22T08:42:54;101836.44;;;26.71;50.09
36692;BME280;22678;52.052;4.242;2023-06-22T08:45:20;101826.22;;;26.77;49.20
36692;BME280;22678;52.052;4.242;2023-06-22T08:47:46;101820.66;;;26.80;48.11
36692;BME280;22678;52.052;4.242;2023-06-22T08:50:11;101811.19;;;26.87;47.98
36692;BME280;22678;52.052;4.242;2023-06-22T08:52:38;101815.16;;;26.96;47.48
36692;BME280;22678;52.052;4.242;2023-06-22T08:55:06;101821.03;;;27.02;47.04
36692;BME280;22678;52.052;4.242;2023-06-22T08:57:32;101808.50;;;27.01;46.77
36692;BME280;22678;52.052;4.242;2023-06-22T08:59:58;101825.66;;;27.15;45.91
36692;BME280;22678;52.052;4.242;2023-06-22T09:02:25;101818.56;;;27.14;45.58
36692;BME280;22678;52.052;4.242;2023-06-22T09:04:50;101813.81;;;27.17;45.13
36692;BME280;22678;52.052;4.242;2023-06-22T09:07:21;101815.66;;;27.31;45.21
36692;BME280;22678;52.052;4.242;2023-06-22T09:09:47;101810.44;;;27.42;44.30
36692;BME280;22678;52.052;4.242;2023-06-22T09:12:12;101800.44;;;27.44;44.04
36692;BME280;22678;52.052;4.242;2023-06-22T09:14:38;101811.38;;;27.56;44.11
36692;BME280;22678;52.052;4.242;2023-06-22T09:17:03;101808.31;;;27.62;44.86
36692;BME280;22678;52.052;4.242;2023-06-22T09:19:28;101807.50;;;27.74;47.21
36692;BME280;22678;52.052;4.242;2023-06-22T09:21:54;101816.16;;;27.79;48.43
36692;BME280;22678;52.052;4.242;2023-06-22T09:24:19;101805.75;;;27.73;48.25
36692;BME280;22678;52.052;4.242;2023-06-22T09:26:45;101806.69;;;27.72;49.00
36692;BME280;22678;52.052;4.242;2023-06-22T09:29:10;101797.09;;;27.68;49.94
36692;BME280;22678;52.052;4.242;2023-06-22T09:31:35;101805.75;;;27.73;50.92
36692;BME280;22678;52.052;4.242;2023-06-22T09:34:01;101810.94;;;27.76;51.28
36692;BME280;22678;52.052;4.242;2023-06-22T09:36:26;101812.38;;;27.82;51.50
36692;BME280;22678;52.052;4.242;2023-06-22T09:38:52;101799.66;;;27.84;51.73
36692;BME280;22678;52.052;4.242;2023-06-22T09:41:21;101806.47;;;27.90;51.89
36692;BME280;22678;52.052;4.242;2023-06-22T09:43:47;101794.31;;;27.83;52.16
36692;BME280;22678;52.052;4.242;2023-06-22T09:46:15;101792.59;;;27.82;52.16
36692;BME280;22678;52.052;4.242;2023-06-22T09:48:40;101791.63;;;27.83;52.46
36692;BME280;22678;52.052;4.242;2023-06-22T09:51:05;101782.66;;;27.82;52.61
36692;BME280;22678;52.052;4.242;2023-06-22T09:53:31;101782.44;;;27.85;52.78
36692;BME280;22678;52.052;4.242;2023-06-22T09:55:56;101787.53;;;27.90;52.60
36692;BME280;22678;52.052;4.242;2023-06-22T09:58:22;101793.53;;;27.95;52.81
36692;BME280;22678;52.052;4.242;2023-06-22T10:00:47;101786.19;;;27.97;52.61
36692;BME280;22678;52.052;4.242;2023-06-22T10:03:13;101777.19;;;27.96;51.75
36692;BME280;22678;52.052;4.242;2023-06-22T10:05:38;101783.38;;;27.99;51.58
36692;BME280;22678;52.052;4.242;2023-06-22T10:08:03;101784.44;;;27.96;51.50
36692;BME280;22678;52.052;4.242;2023-06-22T10:10:29;101779.63;;;27.87;51.40
36692;BME280;22678;52.052;4.242;2023-06-22T10:12:56;101787.63;;;27.88;51.76
36692;BME280;22678;52.052;4.242;2023-06-22T10:15:22;101788.91;;;27.83;51.81
36692;BME280;22678;52.052;4.242;2023-06-22T10:17:48;101789.69;;;27.85;51.99
36692;BME280;22678;52.052;4.242;2023-06-22T10:20:13;101791.81;;;27.79;51.86
36692;BME280;22678;52.052;4.242;2023-06-22T10:22:40;101794.53;;;27.79;52.30
36692;BME280;22678;52.052;4.242;2023-06-22T10:25:06;101794.31;;;27.83;52.32
36692;BME280;22678;52.052;4.242;2023-06-22T10:27:32;101787.78;;;27.72;52.25
36692;BME280;22678;52.052;4.242;2023-06-22T10:29:57;101793.19;;;27.72;51.79
36692;BME280;22678;52.052;4.242;2023-06-22T10:32:22;101782.25;;;27.61;52.19
36692;BME280;22678;52.052;4.242;2023-06-22T10:34:48;101784.16;;;27.59;51.92
36692;BME280;22678;52.052;4.242;2023-06-22T10:37:13;101782.44;;;27.58;52.13
36692;BME280;22678;52.052;4.242;2023-06-22T10:39:38;101799.41;;;27.60;52.22
36692;BME280;22678;52.052;4.242;2023-06-22T10:42:04;101778.41;;;27.51;52.06
36692;BME280;22678;52.052;4.242;2023-06-22T10:44:29;101787.16;;;27.54;52.63
36692;BME280;22678;52.052;4.242;2023-06-22T10:46:55;101788.81;;;27.57;52.46
36692;BME280;22678;52.052;4.242;2023-06-22T10:49:20;101781.66;;;27.56;52.36
36692;BME280;22678;52.052;4.242;2023-06-22T10:51:45;101789.22;;;27.51;52.71
36692;BME280;22678;52.052;4.242;2023-06-22T10:54:11;101788.31;;;27.50;52.73
36692;BME280;22678;52.052;4.242;2023-06-22T10:56:39;101791.13;;;27.49;52.77
36692;BME280;22678;52.052;4.242;2023-06-22T10:59:04;101785.94;;;27.45;52.65
36692;BME280;22678;52.052;4.242;2023-06-22T11:01:30;101784.31;;;27.43;52.91
36692;BME280;22678;52.052;4.242;2023-06-22T11:03:56;101784.03;;;27.48;52.75
36692;BME280;22678;52.052;4.242;2023-06-22T11:06:22;101776.88;;;27.47;52.88
36692;BME280;22678;52.052;4.242;2023-06-22T11:08:47;101778.41;;;27.51;53.14
36692;BME280;22678;52.052;4.242;2023-06-22T11:11:13;101784.47;;;27.54;52.94
36692;BME280;22678;52.052;4.242;2023-06-22T11:13:38;101771.66;;;27.43;52.88
36692;BME280;22678;52.052;4.242;2023-06-22T11:16:03;101787.69;;;27.47;52.82
36692;BME280;22678;52.052;4.242;2023-06-22T11:18:31;101771.88;;;27.40;53.04
36692;BME280;22678;52.052;4.242;2023-06-22T11:20:58;101788.72;;;27.44;53.67
36692;BME280;22678;52.052;4.242;2023-06-22T11:23:24;101793.47;;;27.40;53.33
36692;BME280;22678;52.052;4.242;2023-06-22T11:25:51;101785.28;;;27.42;53.52
36692;BME280;22678;52.052;4.242;2023-06-22T11:28:16;101786.34;;;27.39;53.27
36692;BME280;22678;52.052;4.242;2023-06-22T11:30:41;101781.88;;;27.38;53.85
36692;BME280;22678;52.052;4.242;2023-06-22T11:33:07;101785.47;;;27.39;54.16
36692;BME280;22678;52.052;4.242;2023-06-22T11:35:32;101783.44;;;27.42;54.11
36692;BME280;22678;52.052;4.242;2023-06-22T11:37:57;101769.06;;;27.42;54.19
36692;BME280;22678;52.052;4.242;2023-06-22T11:40:23;101759.81;;;27.32;54.24
36692;BME280;22678;52.052;4.242;2023-06-22T11:42:48;101775.63;;;27.38;54.20
36692;BME280;22678;52.052;4.242;2023-06-22T11:45:14;101774.00;;;27.35;54.99
36692;BME280;22678;52.052;4.242;2023-06-22T11:47:39;101774.16;;;27.32;54.39
36692;BME280;22678;52.052;4.242;2023-06-22T11:50:05;101761.34;;;27.21;54.74
36692;BME280;22678;52.052;4.242;2023-06-22T11:52:31;101769.34;;;27.23;54.65
36692;BME280;22678;52.052;4.242;2023-06-22T11:54:57;101757.97;;;27.18;54.49
36692;BME280;22678;52.052;4.242;2023-06-22T11:57:24;101761.84;;;27.14;54.67
36692;BME280;22678;52.052;4.242;2023-06-22T11:59:49;101759.34;;;27.10;55.11
36692;BME280;22678;52.052;4.242;2023-06-22T12:02:14;101749.72;;;27.06;55.16
36692;BME280;22678;52.052;4.242;2023-06-22T12:04:40;101751.41;;;27.07;55.37
36692;BME280;22678;52.052;4.242;2023-06-22T12:07:05;101737.66;;;26.98;55.38
36692;BME280;22678;52.052;4.242;2023-06-22T12:09:30;101735.06;;;26.96;55.67
36692;BME280;22678;52.052;4.242;2023-06-22T12:11:56;101730.91;;;26.90;55.87
36692;BME280;22678;52.052;4.242;2023-06-22T12:14:21;101733.81;;;26.87;55.77
36692;BME280;22678;52.052;4.242;2023-06-22T12:16:46;101721.78;;;26.79;55.52
36692;BME280;22678;52.052;4.242;2023-06-22T12:19:12;101729.47;;;26.70;55.71
36692;BME280;22678;52.052;4.242;2023-06-22T12:21:38;101724.63;;;26.61;55.91
36692;BME280;22678;52.052;4.242;2023-06-22T12:24:04;101724.31;;;26.51;55.81
36692;BME280;22678;52.052;4.242;2023-06-22T12:26:29;101726.91;;;26.38;56.19
36692;BME280;22678;52.052;4.242;2023-06-22T12:28:55;101725.75;;;26.28;56.61
36692;BME280;22678;52.052;4.242;2023-06-22T12:31:20;101724.66;;;26.16;56.88
36692;BME280;22678;52.052;4.242;2023-06-22T12:33:45;101724.34;;;26.07;56.60
36692;BME280;22678;52.052;4.242;2023-06-22T12:36:11;101714.00;;;25.99;56.89
36692;BME280;22678;52.052;4.242;2023-06-22T12:38:36;101715.41;;;25.90;56.88
36692;BME280;22678;52.052;4.242;2023-06-22T12:41:01;101705.16;;;25.81;57.19
36692;BME280;22678;52.052;4.242;2023-06-22T12:43:27;101714.22;;;25.80;57.39
36692;BME280;22678;52.052;4.242;2023-06-22T12:45:52;101706.50;;;25.74;57.14
36692;BME280;22678;52.052;4.242;2023-06-22T12:48:18;101712.66;;;25.76;56.93
36692;BME280;22678;52.052;4.242;2023-06-22T12:50:44;101709.44;;;25.69;56.64